sensor_id;sensor_type;location;lat;lon;timestamp;P1;durP1;ratioP1;P2;durP2;ratioP2
69185;SDS011;56298;49.246;9.410;2024-02-04T00:02:22;4.23;;;1.40;;
69185;SDS011;56298;49.246;9.410;2024-02-04T00:04:50;4.22;;;1.35;;
69185;SDS011;56298;49.246;9.410;2024-02-04T00:07:15;4.43;;;1.65;;
69185;SDS011;56298;49.246;9.410;2024-02-04T00:09:41;5.03;;;1.50;;
69185;SDS011;56298;49.246;9.410;2024-02-04T00:12:06;4.23;;;1.40;;
69185;SDS011;56298;49.246;9.410;2024-02-04T00:14:31;4.60;;;1.50;;
69185;SDS011;56298;49.246;9.410;2024-02-04T00:16:57;4.20;;;1.50;;
69185;SDS011;56298;49.246;9.410;2024-02-04T00:19:22;3.85;;;1.23;;
69185;SDS011;56298;49.246;9.410;2024-02-04T00:21:47;5.17;;;1.37;;
69185;SDS011;56298;49.246;9.410;2024-02-04T00:24:13;4.03;;;1.47;;
69185;SDS011;56298;49.246;9.410;2024-02-04T00:26:39;4.50;;;1.33;;
69185;SDS011;56298;49.246;9.410;2024-02-04T00:29:04;5.07;;;1.50;;
69185;SDS011;56298;49.246;9.410;2024-02-04T00:31:29;4.33;;;1.50;;
69185;SDS011;56298;49.246;9.410;2024-02-04T00:33:54;4.23;;;1.70;;
69185;SDS011;56298;49.246;9.410;2024-02-04T00:36:20;4.40;;;1.50;;
69185;SDS011;56298;49.246;9.410;2024-02-04T00:38:46;4.28;;;1.60;;
69185;SDS011;56298;49.246;9.410;2024-02-04T00:41:11;4.80;;;1.43;;
69185;SDS011;56298;49.246;9.410;2024-02-04T00:43:37;3.70;;;1.30;;
69185;SDS011;56298;49.246;9.410;2024-02-04T00:46:02;3.70;;;1.30;;
69185;SDS011;56298;49.246;9.410;2024-02-04T00:48:29;5.20;;;1.52;;
69185;SDS011;56298;49.246;9.410;2024-02-04T00:50:54;4.27;;;1.47;;
69185;SDS011;56298;49.246;9.410;2024-02-04T00:53:19;4.10;;;1.73;;
69185;SDS011;56298;49.246;9.410;2024-02-04T00:55:44;7.33;;;2.63;;
69185;SDS011;56298;49.246;9.410;2024-02-04T00:58:10;5.25;;;1.80;;
69185;SDS011;56298;49.246;9.410;2024-02-04T01:00:35;4.33;;;1.77;;
69185;SDS011;56298;49.246;9.410;2024-02-04T01:03:00;4.50;;;1.80;;
69185;SDS011;56298;49.246;9.410;2024-02-04T01:05:25;4.37;;;1.60;;
69185;SDS011;56298;49.246;9.410;2024-02-04T01:07:51;4.23;;;1.60;;
69185;SDS011;56298;49.246;9.410;2024-02-04T01:10:16;4.03;;;1.43;;
69185;SDS011;56298;49.246;9.410;2024-02-04T01:12:41;4.70;;;1.60;;
69185;SDS011;56298;49.246;9.410;2024-02-04T01:15:06;4.30;;;1.40;;
69185;SDS011;56298;49.246;9.410;2024-02-04T01:17:32;4.30;;;1.55;;
69185;SDS011;56298;49.246;9.410;2024-02-04T01:19:58;4.75;;;1.60;;
69185;SDS011;56298;49.246;9.410;2024-02-04T01:22:24;4.40;;;1.63;;
69185;SDS011;56298;49.246;9.410;2024-02-04T01:24:52;4.32;;;1.40;;
69185;SDS011;56298;49.246;9.410;2024-02-04T01:27:17;4.57;;;1.60;;
69185;SDS011;56298;49.246;9.410;2024-02-04T01:29:42;4.93;;;1.60;;
69185;SDS011;56298;49.246;9.410;2024-02-04T01:32:07;5.60;;;1.70;;
69185;SDS011;56298;49.246;9.410;2024-02-04T01:34:33;4.13;;;1.40;;
69185;SDS011;56298;49.246;9.410;2024-02-04T01:36:58;3.57;;;1.27;;
69185;SDS011;56298;49.246;9.410;2024-02-04T01:39:23;4.73;;;1.40;;
69185;SDS011;56298;49.246;9.410;2024-02-04T01:41:48;4.50;;;1.50;;
69185;SDS011;56298;49.246;9.410;2024-02-04T01:44:14;4.03;;;1.30;;
69185;SDS011;56298;49.246;9.410;2024-02-04T01:46:40;4.78;;;1.55;;
69185;SDS011;56298;49.246;9.410;2024-02-04T01:49:06;4.83;;;1.60;;
69185;SDS011;56298;49.246;9.410;2024-02-04T01:51:31;4.70;;;1.67;;
69185;SDS011;56298;49.246;9.410;2024-02-04T01:53:57;4.30;;;1.50;;
69185;SDS011;56298;49.246;9.410;2024-02-04T01:56:22;4.10;;;1.30;;
69185;SDS011;56298;49.246;9.410;2024-02-04T01:58:47;4.20;;;1.40;;
69185;SDS011;56298;49.246;9.410;2024-02-04T02:01:13;4.28;;;1.40;;
69185;SDS011;56298;49.246;9.410;2024-02-04T02:03:39;4.22;;;1.50;;
69185;SDS011;56298;49.246;9.410;2024-02-04T02:06:05;4.15;;;1.20;;
69185;SDS011;56298;49.246;9.410;2024-02-04T02:08:30;3.77;;;1.20;;
69185;SDS011;56298;49.246;9.410;2024-02-04T02:10:57;4.05;;;1.15;;
69185;SDS011;56298;49.246;9.410;2024-02-04T02:13:30;6.03;;;1.13;;
69185;SDS011;56298;49.246;9.410;2024-02-04T02:16:01;3.95;;;1.00;;
69185;SDS011;56298;49.246;9.410;2024-02-04T02:18:47;3.35;;;1.00;;
69185;SDS011;56298;49.246;9.410;2024-02-04T02:26:51;4.10;;;1.20;;
69185;SDS011;56298;49.246;9.410;2024-02-04T02:29:18;3.73;;;1.03;;
69185;SDS011;56298;49.246;9.410;2024-02-04T02:31:43;3.80;;;1.20;;
69185;SDS011;56298;49.246;9.410;2024-02-04T02:34:09;3.33;;;1.10;;
69185;SDS011;56298;49.246;9.410;2024-02-04T02:36:45;3.35;;;1.00;;
69185;SDS011;56298;49.246;9.410;2024-02-04T02:39:17;4.10;;;1.00;;
69185;SDS011;56298;49.246;9.410;2024-02-04T02:41:46;3.67;;;1.00;;
69185;SDS011;56298;49.246;9.410;2024-02-04T02:44:16;4.20;;;1.30;;
69185;SDS011;56298;49.246;9.410;2024-02-04T02:46:42;3.50;;;0.90;;
69185;SDS011;56298;49.246;9.410;2024-02-04T02:49:07;3.92;;;1.02;;
69185;SDS011;56298;49.246;9.410;2024-02-04T02:51:33;3.75;;;1.30;;
69185;SDS011;56298;49.246;9.410;2024-02-04T02:53:58;4.07;;;1.10;;
69185;SDS011;56298;49.246;9.410;2024-02-04T02:56:24;4.00;;;1.20;;
69185;SDS011;56298;49.246;9.410;2024-02-04T02:58:49;3.50;;;1.10;;
69185;SDS011;56298;49.246;9.410;2024-02-04T03:01:14;4.97;;;1.20;;
69185;SDS011;56298;49.246;9.410;2024-02-04T03:03:40;3.40;;;1.10;;
69185;SDS011;56298;49.246;9.410;2024-02-04T03:06:05;3.50;;;1.07;;
69185;SDS011;56298;49.246;9.410;2024-02-04T03:08:31;4.75;;;1.10;;
69185;SDS011;56298;49.246;9.410;2024-02-04T03:10:56;3.80;;;1.30;;
69185;SDS011;56298;49.246;9.410;2024-02-04T03:13:22;3.80;;;1.25;;
69185;SDS011;56298;49.246;9.410;2024-02-04T03:15:47;4.27;;;1.30;;
69185;SDS011;56298;49.246;9.410;2024-02-04T03:18:12;3.93;;;1.23;;
69185;SDS011;56298;49.246;9.410;2024-02-04T03:20:38;4.07;;;1.20;;
69185;SDS011;56298;49.246;9.410;2024-02-04T03:23:03;4.10;;;1.13;;
69185;SDS011;56298;49.246;9.410;2024-02-04T03:25:28;3.10;;;0.90;;
69185;SDS011;56298;49.246;9.410;2024-02-04T03:27:54;4.30;;;1.20;;
69185;SDS011;56298;49.246;9.410;2024-02-04T03:30:19;4.47;;;1.20;;
69185;SDS011;56298;49.246;9.410;2024-02-04T03:32:45;4.00;;;1.00;;
69185;SDS011;56298;49.246;9.410;2024-02-04T03:35:10;3.53;;;1.20;;
69185;SDS011;56298;49.246;9.410;2024-02-04T03:37:35;4.30;;;1.80;;
69185;SDS011;56298;49.246;9.410;2024-02-04T03:40:00;3.83;;;1.13;;
69185;SDS011;56298;49.246;9.410;2024-02-04T03:42:25;3.70;;;1.10;;
69185;SDS011;56298;49.246;9.410;2024-02-04T03:44:51;3.50;;;1.10;;
69185;SDS011;56298;49.246;9.410;2024-02-04T03:47:16;3.60;;;1.10;;
69185;SDS011;56298;49.246;9.410;2024-02-04T03:49:41;3.60;;;1.20;;
69185;SDS011;56298;49.246;9.410;2024-02-04T03:52:06;4.10;;;1.30;;
69185;SDS011;56298;49.246;9.410;2024-02-04T03:54:32;3.80;;;1.40;;
69185;SDS011;56298;49.246;9.410;2024-02-04T03:56:57;3.60;;;1.00;;
69185;SDS011;56298;49.246;9.410;2024-02-04T03:59:22;3.50;;;1.10;;
69185;SDS011;56298;49.246;9.410;2024-02-04T04:01:48;4.07;;;1.30;;
69185;SDS011;56298;49.246;9.410;2024-02-04T04:04:14;4.10;;;1.10;;
69185;SDS011;56298;49.246;9.410;2024-02-04T04:06:39;4.60;;;1.20;;
69185;SDS011;56298;49.246;9.410;2024-02-04T04:09:05;3.43;;;1.27;;
69185;SDS011;56298;49.246;9.410;2024-02-04T04:11:31;4.67;;;1.57;;
69185;SDS011;56298;49.246;9.410;2024-02-04T04:13:56;3.67;;;1.30;;
69185;SDS011;56298;49.246;9.410;2024-02-04T04:16:21;3.70;;;1.10;;
69185;SDS011;56298;49.246;9.410;2024-02-04T04:18:47;3.60;;;1.00;;
69185;SDS011;56298;49.246;9.410;2024-02-04T04:21:12;3.27;;;1.07;;
69185;SDS011;56298;49.246;9.410;2024-02-04T04:23:38;3.80;;;1.20;;
69185;SDS011;56298;49.246;9.410;2024-02-04T04:26:03;3.60;;;0.83;;
69185;SDS011;56298;49.246;9.410;2024-02-04T04:28:28;3.40;;;1.00;;
69185;SDS011;56298;49.246;9.410;2024-02-04T04:30:53;3.83;;;1.10;;
69185;SDS011;56298;49.246;9.410;2024-02-04T04:33:19;3.95;;;1.15;;
69185;SDS011;56298;49.246;9.410;2024-02-04T04:35:45;3.50;;;1.03;;
69185;SDS011;56298;49.246;9.410;2024-02-04T04:38:10;4.00;;;0.90;;
69185;SDS011;56298;49.246;9.410;2024-02-04T04:40:35;3.17;;;0.90;;
69185;SDS011;56298;49.246;9.410;2024-02-04T04:43:00;3.53;;;0.90;;
69185;SDS011;56298;49.246;9.410;2024-02-04T04:45:26;3.53;;;1.00;;
69185;SDS011;56298;49.246;9.410;2024-02-04T04:47:51;3.07;;;0.90;;
69185;SDS011;56298;49.246;9.410;2024-02-04T04:50:16;3.27;;;0.90;;
69185;SDS011;56298;49.246;9.410;2024-02-04T04:52:41;3.77;;;0.97;;
69185;SDS011;56298;49.246;9.410;2024-02-04T04:55:07;3.90;;;1.03;;
69185;SDS011;56298;49.246;9.410;2024-02-04T04:57:32;4.70;;;1.10;;
69185;SDS011;56298;49.246;9.410;2024-02-04T04:59:57;4.50;;;1.10;;
69185;SDS011;56298;49.246;9.410;2024-02-04T05:02:25;3.60;;;1.02;;
69185;SDS011;56298;49.246;9.410;2024-02-04T05:04:50;3.40;;;1.07;;
69185;SDS011;56298;49.246;9.410;2024-02-04T05:07:16;3.43;;;1.20;;
69185;SDS011;56298;49.246;9.410;2024-02-04T05:09:41;3.70;;;1.10;;
69185;SDS011;56298;49.246;9.410;2024-02-04T05:12:08;3.73;;;1.20;;
69185;SDS011;56298;49.246;9.410;2024-02-04T05:14:33;3.80;;;1.10;;
69185;SDS011;56298;49.246;9.410;2024-02-04T05:16:58;3.70;;;1.30;;
69185;SDS011;56298;49.246;9.410;2024-02-04T05:19:24;3.80;;;1.10;;
69185;SDS011;56298;49.246;9.410;2024-02-04T05:21:49;3.93;;;1.20;;
69185;SDS011;56298;49.246;9.410;2024-02-04T05:24:14;3.93;;;1.30;;
69185;SDS011;56298;49.246;9.410;2024-02-04T05:26:39;3.90;;;1.40;;
69185;SDS011;56298;49.246;9.410;2024-02-04T05:29:05;4.27;;;1.20;;
69185;SDS011;56298;49.246;9.410;2024-02-04T05:31:30;3.57;;;1.10;;
69185;SDS011;56298;49.246;9.410;2024-02-04T05:33:55;3.77;;;1.00;;
69185;SDS011;56298;49.246;9.410;2024-02-04T05:36:20;3.80;;;1.20;;
69185;SDS011;56298;49.246;9.410;2024-02-04T05:38:46;4.20;;;1.57;;
69185;SDS011;56298;49.246;9.410;2024-02-04T05:41:11;3.40;;;1.10;;
69185;SDS011;56298;49.246;9.410;2024-02-04T05:43:36;4.10;;;1.20;;
69185;SDS011;56298;49.246;9.410;2024-02-04T05:46:01;5.00;;;1.30;;
69185;SDS011;56298;49.246;9.410;2024-02-04T05:48:27;3.87;;;1.23;;
69185;SDS011;56298;49.246;9.410;2024-02-04T05:50:52;3.67;;;1.20;;
69185;SDS011;56298;49.246;9.410;2024-02-04T05:53:18;4.07;;;1.30;;
69185;SDS011;56298;49.246;9.410;2024-02-04T05:55:43;4.03;;;1.47;;
69185;SDS011;56298;49.246;9.410;2024-02-04T05:58:08;4.50;;;1.47;;
69185;SDS011;56298;49.246;9.410;2024-02-04T06:00:34;4.80;;;1.80;;
69185;SDS011;56298;49.246;9.410;2024-02-04T06:02:59;4.70;;;1.63;;
69185;SDS011;56298;49.246;9.410;2024-02-04T06:05:24;5.37;;;1.30;;
69185;SDS011;56298;49.246;9.410;2024-02-04T06:07:49;3.67;;;1.10;;
69185;SDS011;56298;49.246;9.410;2024-02-04T06:10:14;3.33;;;1.10;;
69185;SDS011;56298;49.246;9.410;2024-02-04T06:12:40;3.30;;;1.00;;
69185;SDS011;56298;49.246;9.410;2024-02-04T06:15:13;4.35;;;1.35;;
69185;SDS011;56298;49.246;9.410;2024-02-04T06:17:39;4.78;;;1.27;;
69185;SDS011;56298;49.246;9.410;2024-02-04T06:20:04;3.47;;;1.20;;
69185;SDS011;56298;49.246;9.410;2024-02-04T06:22:30;3.80;;;1.03;;
69185;SDS011;56298;49.246;9.410;2024-02-04T06:24:55;4.60;;;1.10;;
69185;SDS011;56298;49.246;9.410;2024-02-04T06:27:21;3.50;;;1.07;;
69185;SDS011;56298;49.246;9.410;2024-02-04T06:29:46;5.27;;;1.00;;
69185;SDS011;56298;49.246;9.410;2024-02-04T06:32:11;3.93;;;1.03;;
69185;SDS011;56298;49.246;9.410;2024-02-04T06:34:37;3.50;;;0.90;;
69185;SDS011;56298;49.246;9.410;2024-02-04T06:37:02;4.13;;;1.30;;
69185;SDS011;56298;49.246;9.410;2024-02-04T06:39:27;4.50;;;1.30;;
69185;SDS011;56298;49.246;9.410;2024-02-04T06:41:52;4.50;;;1.47;;
69185;SDS011;56298;49.246;9.410;2024-02-04T06:44:18;4.60;;;1.50;;
69185;SDS011;56298;49.246;9.410;2024-02-04T06:46:43;5.17;;;1.63;;
69185;SDS011;56298;49.246;9.410;2024-02-04T06:49:08;5.60;;;2.00;;
69185;SDS011;56298;49.246;9.410;2024-02-04T06:51:33;4.97;;;2.30;;
69185;SDS011;56298;49.246;9.410;2024-02-04T06:53:59;4.70;;;2.23;;
69185;SDS011;56298;49.246;9.410;2024-02-04T06:56:25;5.35;;;2.55;;
69185;SDS011;56298;49.246;9.410;2024-02-04T06:58:51;5.90;;;2.60;;
69185;SDS011;56298;49.246;9.410;2024-02-04T07:01:16;4.43;;;1.80;;
69185;SDS011;56298;49.246;9.410;2024-02-04T07:03:41;3.90;;;1.10;;
69185;SDS011;56298;49.246;9.410;2024-02-04T07:06:06;3.60;;;1.10;;
69185;SDS011;56298;49.246;9.410;2024-02-04T07:08:32;3.50;;;0.83;;
69185;SDS011;56298;49.246;9.410;2024-02-04T07:10:57;5.13;;;1.47;;
69185;SDS011;56298;49.246;9.410;2024-02-04T07:13:23;6.13;;;1.90;;
69185;SDS011;56298;49.246;9.410;2024-02-04T07:15:48;3.70;;;1.20;;
69185;SDS011;56298;49.246;9.410;2024-02-04T07:18:13;4.20;;;1.02;;
69185;SDS011;56298;49.246;9.410;2024-02-04T07:20:38;2.90;;;0.70;;
69185;SDS011;56298;49.246;9.410;2024-02-04T07:23:04;3.13;;;0.75;;
69185;SDS011;56298;49.246;9.410;2024-02-04T07:25:30;3.60;;;0.80;;
69185;SDS011;56298;49.246;9.410;2024-02-04T07:27:56;3.17;;;0.82;;
69185;SDS011;56298;49.246;9.410;2024-02-04T07:30:22;3.70;;;0.60;;
69185;SDS011;56298;49.246;9.410;2024-02-04T07:32:47;3.00;;;0.80;;
69185;SDS011;56298;49.246;9.410;2024-02-04T07:35:13;3.10;;;0.83;;
69185;SDS011;56298;49.246;9.410;2024-02-04T07:37:38;2.90;;;0.67;;
69185;SDS011;56298;49.246;9.410;2024-02-04T07:40:03;2.83;;;0.53;;
69185;SDS011;56298;49.246;9.410;2024-02-04T07:42:32;3.60;;;0.80;;
69185;SDS011;56298;49.246;9.410;2024-02-04T07:44:57;3.20;;;0.70;;
69185;SDS011;56298;49.246;9.410;2024-02-04T07:47:23;2.90;;;0.63;;
69185;SDS011;56298;49.246;9.410;2024-02-04T07:49:48;3.03;;;0.60;;
69185;SDS011;56298;49.246;9.410;2024-02-04T07:52:14;4.07;;;1.00;;
69185;SDS011;56298;49.246;9.410;2024-02-04T07:54:39;3.30;;;0.67;;
69185;SDS011;56298;49.246;9.410;2024-02-04T07:57:05;3.10;;;0.60;;
69185;SDS011;56298;49.246;9.410;2024-02-04T07:59:30;3.20;;;0.80;;
69185;SDS011;56298;49.246;9.410;2024-02-04T08:01:56;3.30;;;0.60;;
69185;SDS011;56298;49.246;9.410;2024-02-04T08:04:21;3.50;;;0.70;;
69185;SDS011;56298;49.246;9.410;2024-02-04T08:06:47;3.00;;;0.52;;
69185;SDS011;56298;49.246;9.410;2024-02-04T08:09:12;2.75;;;0.50;;
69185;SDS011;56298;49.246;9.410;2024-02-04T08:11:37;3.17;;;0.60;;
69185;SDS011;56298;49.246;9.410;2024-02-04T08:14:03;2.83;;;0.57;;
69185;SDS011;56298;49.246;9.410;2024-02-04T08:16:28;2.90;;;0.57;;
69185;SDS011;56298;49.246;9.410;2024-02-04T08:18:53;4.40;;;0.60;;
69185;SDS011;56298;49.246;9.410;2024-02-04T08:21:19;2.90;;;0.53;;
69185;SDS011;56298;49.246;9.410;2024-02-04T08:23:44;2.70;;;0.60;;
69185;SDS011;56298;49.246;9.410;2024-02-04T08:26:09;3.37;;;0.60;;
69185;SDS011;56298;49.246;9.410;2024-02-04T08:28:35;2.83;;;0.60;;
69185;SDS011;56298;49.246;9.410;2024-02-04T08:31:00;3.30;;;0.60;;
69185;SDS011;56298;49.246;9.410;2024-02-04T08:33:25;3.00;;;0.60;;
69185;SDS011;56298;49.246;9.410;2024-02-04T08:35:50;3.30;;;0.70;;
69185;SDS011;56298;49.246;9.410;2024-02-04T08:38:16;2.90;;;0.60;;
69185;SDS011;56298;49.246;9.410;2024-02-04T08:40:41;3.13;;;0.60;;
69185;SDS011;56298;49.246;9.410;2024-02-04T08:43:06;3.30;;;1.00;;
69185;SDS011;56298;49.246;9.410;2024-02-04T08:45:31;3.40;;;0.80;;
69185;SDS011;56298;49.246;9.410;2024-02-04T08:47:57;3.10;;;0.90;;
69185;SDS011;56298;49.246;9.410;2024-02-04T08:50:22;2.97;;;0.82;;
69185;SDS011;56298;49.246;9.410;2024-02-04T08:52:47;3.93;;;1.27;;
69185;SDS011;56298;49.246;9.410;2024-02-04T08:55:13;3.60;;;0.90;;
69185;SDS011;56298;49.246;9.410;2024-02-04T08:57:38;2.90;;;0.70;;
69185;SDS011;56298;49.246;9.410;2024-02-04T09:00:04;3.17;;;0.77;;
69185;SDS011;56298;49.246;9.410;2024-02-04T09:02:33;2.90;;;0.70;;
69185;SDS011;56298;49.246;9.410;2024-02-04T09:04:59;3.85;;;1.00;;
69185;SDS011;56298;49.246;9.410;2024-02-04T09:07:24;2.93;;;0.60;;
69185;SDS011;56298;49.246;9.410;2024-02-04T09:09:50;4.00;;;0.73;;
69185;SDS011;56298;49.246;9.410;2024-02-04T09:12:15;3.63;;;0.77;;
69185;SDS011;56298;49.246;9.410;2024-02-04T09:14:40;4.07;;;0.87;;
69185;SDS011;56298;49.246;9.410;2024-02-04T09:17:05;3.10;;;0.80;;
69185;SDS011;56298;49.246;9.410;2024-02-04T09:19:31;3.30;;;0.80;;
69185;SDS011;56298;49.246;9.410;2024-02-04T09:21:57;2.90;;;0.70;;
69185;SDS011;56298;49.246;9.410;2024-02-04T09:24:22;3.13;;;0.70;;
69185;SDS011;56298;49.246;9.410;2024-02-04T09:26:47;3.10;;;0.80;;
69185;SDS011;56298;49.246;9.410;2024-02-04T09:29:12;3.77;;;0.90;;
69185;SDS011;56298;49.246;9.410;2024-02-04T09:31:38;3.30;;;0.70;;
69185;SDS011;56298;49.246;9.410;2024-02-04T09:34:03;2.83;;;0.60;;
69185;SDS011;56298;49.246;9.410;2024-02-04T09:36:28;3.30;;;0.60;;
69185;SDS011;56298;49.246;9.410;2024-02-04T09:38:54;2.80;;;0.60;;
69185;SDS011;56298;49.246;9.410;2024-02-04T09:41:20;2.60;;;0.60;;
69185;SDS011;56298;49.246;9.410;2024-02-04T09:43:46;2.67;;;0.60;;
69185;SDS011;56298;49.246;9.410;2024-02-04T09:46:11;2.83;;;0.60;;
69185;SDS011;56298;49.246;9.410;2024-02-04T09:48:36;2.70;;;0.50;;
69185;SDS011;56298;49.246;9.410;2024-02-04T09:51:03;2.55;;;0.50;;
69185;SDS011;56298;49.246;9.410;2024-02-04T09:53:31;3.00;;;0.60;;
69185;SDS011;56298;49.246;9.410;2024-02-04T09:55:59;3.15;;;0.60;;
69185;SDS011;56298;49.246;9.410;2024-02-04T09:58:26;2.45;;;0.50;;
69185;SDS011;56298;49.246;9.410;2024-02-04T10:00:52;2.50;;;0.50;;
69185;SDS011;56298;49.246;9.410;2024-02-04T10:03:18;2.40;;;0.50;;
69185;SDS011;56298;49.246;9.410;2024-02-04T10:05:44;2.60;;;0.60;;
69185;SDS011;56298;49.246;9.410;2024-02-04T10:08:10;3.50;;;0.80;;
69185;SDS011;56298;49.246;9.410;2024-02-04T10:10:35;3.20;;;0.70;;
69185;SDS011;56298;49.246;9.410;2024-02-04T10:13:05;2.80;;;0.60;;
69185;SDS011;56298;49.246;9.410;2024-02-04T10:15:31;3.47;;;0.60;;
69185;SDS011;56298;49.246;9.410;2024-02-04T10:17:57;2.60;;;0.60;;
69185;SDS011;56298;49.246;9.410;2024-02-04T10:20:22;2.60;;;0.53;;
69185;SDS011;56298;49.246;9.410;2024-02-04T10:22:47;3.30;;;0.90;;
69185;SDS011;56298;49.246;9.410;2024-02-04T10:25:14;4.82;;;1.70;;
69185;SDS011;56298;49.246;9.410;2024-02-04T10:27:41;4.90;;;1.70;;
69185;SDS011;56298;49.246;9.410;2024-02-04T10:30:07;2.67;;;0.57;;
69185;SDS011;56298;49.246;9.410;2024-02-04T10:32:33;2.90;;;0.70;;
69185;SDS011;56298;49.246;9.410;2024-02-04T10:34:59;3.58;;;1.05;;
69185;SDS011;56298;49.246;9.410;2024-02-04T10:37:25;2.53;;;0.60;;
69185;SDS011;56298;49.246;9.410;2024-02-04T10:39:51;3.07;;;0.70;;
69185;SDS011;56298;49.246;9.410;2024-02-04T10:42:16;2.40;;;0.50;;
69185;SDS011;56298;49.246;9.410;2024-02-04T10:44:42;2.38;;;0.50;;
69185;SDS011;56298;49.246;9.410;2024-02-04T10:47:10;2.97;;;0.77;;
69185;SDS011;56298;49.246;9.410;2024-02-04T10:49:43;3.13;;;0.70;;
69185;SDS011;56298;49.246;9.410;2024-02-04T10:52:15;3.42;;;0.50;;
69185;SDS011;56298;49.246;9.410;2024-02-04T10:54:42;2.40;;;0.50;;
69185;SDS011;56298;49.246;9.410;2024-02-04T10:57:09;2.90;;;0.70;;
69185;SDS011;56298;49.246;9.410;2024-02-04T10:59:38;2.55;;;0.60;;
69185;SDS011;56298;49.246;9.410;2024-02-04T11:02:05;2.80;;;0.70;;
69185;SDS011;56298;49.246;9.410;2024-02-04T11:04:30;3.17;;;0.68;;
69185;SDS011;56298;49.246;9.410;2024-02-04T11:06:57;3.55;;;0.70;;
69185;SDS011;56298;49.246;9.410;2024-02-04T11:09:23;2.97;;;0.50;;
69185;SDS011;56298;49.246;9.410;2024-02-04T11:11:49;2.70;;;0.50;;
69185;SDS011;56298;49.246;9.410;2024-02-04T11:14:16;2.50;;;0.50;;
69185;SDS011;56298;49.246;9.410;2024-02-04T11:22:57;2.40;;;0.50;;
69185;SDS011;56298;49.246;9.410;2024-02-04T11:28:11;3.30;;;0.60;;
69185;SDS011;56298;49.246;9.410;2024-02-04T11:30:37;3.42;;;0.93;;
69185;SDS011;56298;49.246;9.410;2024-02-04T11:33:03;3.40;;;0.70;;
69185;SDS011;56298;49.246;9.410;2024-02-04T11:35:30;3.35;;;0.68;;
69185;SDS011;56298;49.246;9.410;2024-02-04T11:37:57;2.67;;;0.63;;
69185;SDS011;56298;49.246;9.410;2024-02-04T11:40:22;2.40;;;0.57;;
69185;SDS011;56298;49.246;9.410;2024-02-04T11:42:49;2.50;;;0.50;;
69185;SDS011;56298;49.246;9.410;2024-02-04T11:45:14;2.92;;;0.40;;
69185;SDS011;56298;49.246;9.410;2024-02-04T11:47:40;2.25;;;0.40;;
69185;SDS011;56298;49.246;9.410;2024-02-04T11:50:06;3.40;;;0.80;;
69185;SDS011;56298;49.246;9.410;2024-02-04T11:52:34;3.78;;;0.82;;
69185;SDS011;56298;49.246;9.410;2024-02-04T11:54:59;8.57;;;3.07;;
69185;SDS011;56298;49.246;9.410;2024-02-04T11:57:24;4.90;;;1.63;;
69185;SDS011;56298;49.246;9.410;2024-02-04T11:59:50;3.40;;;0.90;;
69185;SDS011;56298;49.246;9.410;2024-02-04T12:02:19;3.47;;;0.85;;
69185;SDS011;56298;49.246;9.410;2024-02-04T12:04:45;2.53;;;0.60;;
69185;SDS011;56298;49.246;9.410;2024-02-04T12:07:11;4.20;;;0.60;;
69185;SDS011;56298;49.246;9.410;2024-02-04T12:09:38;3.60;;;1.20;;
69185;SDS011;56298;49.246;9.410;2024-02-04T12:12:04;3.08;;;0.55;;
69185;SDS011;56298;49.246;9.410;2024-02-04T12:14:29;3.00;;;0.50;;
69185;SDS011;56298;49.246;9.410;2024-02-04T12:16:56;2.88;;;0.60;;
69185;SDS011;56298;49.246;9.410;2024-02-04T12:19:22;3.17;;;0.68;;
69185;SDS011;56298;49.246;9.410;2024-02-04T12:21:48;3.07;;;0.60;;
69185;SDS011;56298;49.246;9.410;2024-02-04T12:24:13;3.00;;;0.80;;
69185;SDS011;56298;49.246;9.410;2024-02-04T12:26:39;3.58;;;1.00;;
69185;SDS011;56298;49.246;9.410;2024-02-04T12:29:05;2.83;;;0.73;;
69185;SDS011;56298;49.246;9.410;2024-02-04T12:31:31;2.75;;;0.60;;
69185;SDS011;56298;49.246;9.410;2024-02-04T12:33:58;2.70;;;0.60;;
69185;SDS011;56298;49.246;9.410;2024-02-04T12:36:29;3.65;;;0.73;;
69185;SDS011;56298;49.246;9.410;2024-02-04T12:38:56;4.35;;;0.95;;
69185;SDS011;56298;49.246;9.410;2024-02-04T12:41:22;2.90;;;0.80;;
69185;SDS011;56298;49.246;9.410;2024-02-04T12:43:49;3.13;;;1.00;;
69185;SDS011;56298;49.246;9.410;2024-02-04T12:46:15;3.40;;;0.90;;
69185;SDS011;56298;49.246;9.410;2024-02-04T12:48:41;3.10;;;0.80;;
69185;SDS011;56298;49.246;9.410;2024-02-04T12:51:06;3.20;;;0.80;;
69185;SDS011;56298;49.246;9.410;2024-02-04T12:53:32;3.30;;;1.00;;
69185;SDS011;56298;49.246;9.410;2024-02-04T12:55:57;3.50;;;1.10;;
69185;SDS011;56298;49.246;9.410;2024-02-04T12:58:24;3.33;;;0.80;;
69185;SDS011;56298;49.246;9.410;2024-02-04T13:00:58;4.20;;;1.37;;
69185;SDS011;56298;49.246;9.410;2024-02-04T13:03:25;3.80;;;0.90;;
69185;SDS011;56298;49.246;9.410;2024-02-04T13:05:50;3.25;;;0.80;;
69185;SDS011;56298;49.246;9.410;2024-02-04T13:08:18;4.22;;;0.90;;
69185;SDS011;56298;49.246;9.410;2024-02-04T13:10:44;3.40;;;0.85;;
69185;SDS011;56298;49.246;9.410;2024-02-04T13:13:19;4.57;;;0.87;;
69185;SDS011;56298;49.246;9.410;2024-02-04T13:15:45;2.92;;;0.75;;
69185;SDS011;56298;49.246;9.410;2024-02-04T13:18:11;4.10;;;1.05;;
69185;SDS011;56298;49.246;9.410;2024-02-04T13:20:40;4.43;;;1.30;;
69185;SDS011;56298;49.246;9.410;2024-02-04T13:23:06;3.27;;;0.80;;
69185;SDS011;56298;49.246;9.410;2024-02-04T13:25:31;4.83;;;1.60;;
69185;SDS011;56298;49.246;9.410;2024-02-04T13:27:57;6.57;;;2.50;;
69185;SDS011;56298;49.246;9.410;2024-02-04T13:30:22;4.63;;;1.50;;
69185;SDS011;56298;49.246;9.410;2024-02-04T13:32:47;5.97;;;1.80;;
69185;SDS011;56298;49.246;9.410;2024-02-04T13:35:13;5.73;;;2.07;;
69185;SDS011;56298;49.246;9.410;2024-02-04T13:37:41;3.40;;;1.00;;
69185;SDS011;56298;49.246;9.410;2024-02-04T13:40:16;5.10;;;1.10;;
69185;SDS011;56298;49.246;9.410;2024-02-04T13:42:42;4.03;;;1.48;;
69185;SDS011;56298;49.246;9.410;2024-02-04T13:45:08;3.70;;;1.15;;
69185;SDS011;56298;49.246;9.410;2024-02-04T13:47:33;4.70;;;1.50;;
69185;SDS011;56298;49.246;9.410;2024-02-04T13:49:59;3.30;;;1.00;;
69185;SDS011;56298;49.246;9.410;2024-02-04T13:52:25;3.33;;;1.20;;
69185;SDS011;56298;49.246;9.410;2024-02-04T13:54:50;3.90;;;0.93;;
69185;SDS011;56298;49.246;9.410;2024-02-04T13:57:15;2.90;;;0.73;;
69185;SDS011;56298;49.246;9.410;2024-02-04T13:59:40;3.10;;;0.77;;
69185;SDS011;56298;49.246;9.410;2024-02-04T14:02:06;2.93;;;0.87;;
69185;SDS011;56298;49.246;9.410;2024-02-04T14:04:33;3.70;;;1.00;;
69185;SDS011;56298;49.246;9.410;2024-02-04T14:06:59;3.40;;;1.00;;
69185;SDS011;56298;49.246;9.410;2024-02-04T14:09:24;4.47;;;0.90;;
69185;SDS011;56298;49.246;9.410;2024-02-04T14:11:49;3.20;;;1.00;;
69185;SDS011;56298;49.246;9.410;2024-02-04T14:14:14;3.70;;;1.00;;
69185;SDS011;56298;49.246;9.410;2024-02-04T14:16:40;4.10;;;1.17;;
69185;SDS011;56298;49.246;9.410;2024-02-04T14:19:05;3.47;;;0.90;;
69185;SDS011;56298;49.246;9.410;2024-02-04T14:21:30;3.90;;;1.20;;
69185;SDS011;56298;49.246;9.410;2024-02-04T14:23:56;3.43;;;0.90;;
69185;SDS011;56298;49.246;9.410;2024-02-04T14:26:21;4.10;;;1.20;;
69185;SDS011;56298;49.246;9.410;2024-02-04T14:28:47;3.30;;;0.95;;
69185;SDS011;56298;49.246;9.410;2024-02-04T14:31:13;3.20;;;0.90;;
69185;SDS011;56298;49.246;9.410;2024-02-04T14:33:38;2.90;;;0.70;;
69185;SDS011;56298;49.246;9.410;2024-02-04T14:36:05;3.80;;;1.10;;
69185;SDS011;56298;49.246;9.410;2024-02-04T14:38:31;3.20;;;0.90;;
69185;SDS011;56298;49.246;9.410;2024-02-04T14:40:57;3.20;;;0.98;;
69185;SDS011;56298;49.246;9.410;2024-02-04T14:43:23;3.55;;;1.05;;
69185;SDS011;56298;49.246;9.410;2024-02-04T14:45:49;3.50;;;1.10;;
69185;SDS011;56298;49.246;9.410;2024-02-04T14:48:15;3.78;;;1.20;;
69185;SDS011;56298;49.246;9.410;2024-02-04T14:50:40;3.60;;;1.40;;
69185;SDS011;56298;49.246;9.410;2024-02-04T14:53:05;3.73;;;1.10;;
69185;SDS011;56298;49.246;9.410;2024-02-04T14:55:31;3.00;;;0.90;;